createdAt,value
2023-04-16T00:01:51.294Z,97129.38
2023-04-16T00:04:19.771Z,97123.41
2023-04-16T00:06:48.286Z,97128.56
2023-04-16T00:09:17.994Z,97133.41
2023-04-16T00:11:46.347Z,97135.03
2023-04-16T00:14:14.753Z,97137.84
2023-04-16T00:16:43.108Z,97142.22
2023-04-16T00:19:11.515Z,97130.72
2023-04-16T00:21:40.012Z,97137.84
2023-04-16T00:24:08.516Z,97146.19
2023-04-16T00:26:38.642Z,97132.28
2023-04-16T00:29:07.155Z,97139.31
2023-04-16T00:31:35.759Z,97143.34
2023-04-16T00:34:05.419Z,97151.88
2023-04-16T00:36:34.107Z,97149.84
2023-04-16T00:39:02.356Z,97149.94
2023-04-16T00:41:30.677Z,97147.22
2023-04-16T00:44:00.526Z,97140.47
2023-04-16T00:46:29.175Z,97148.81
2023-04-16T00:48:57.936Z,97141.22
2023-04-16T00:51:27.178Z,97140.13
2023-04-16T00:53:56.612Z,97148.69
2023-04-16T00:56:25.930Z,97153.41
2023-04-16T00:58:54.182Z,97148.03
2023-04-16T01:01:24.028Z,97158.72
2023-04-16T01:03:52.891Z,97152.09
2023-04-16T01:06:21.653Z,97156.97
2023-04-16T01:08:50.229Z,97144.69
2023-04-16T01:11:18.683Z,97155.75
2023-04-16T01:13:47.241Z,97162.28
2023-04-16T01:16:15.951Z,97168.97
2023-04-16T01:18:46.210Z,97167.56
2023-04-16T01:21:16.148Z,97167.75
2023-04-16T01:23:44.589Z,97176.19
2023-04-16T01:26:12.847Z,97182.75
2023-04-16T01:28:41.934Z,97173.56
2023-04-16T01:31:10.287Z,97173.25
2023-04-16T01:33:55.351Z,97173.28
2023-04-16T01:36:26.976Z,97170.69
2023-04-16T01:38:56.003Z,97173.34
2023-04-16T01:41:25.200Z,97171.03
2023-04-16T01:43:53.488Z,97177.41
2023-04-16T01:46:29.053Z,97172.19
2023-04-16T01:48:57.681Z,97178.97
2023-04-16T01:51:27.464Z,97177.22
2023-04-16T01:53:58.388Z,97176.47
2023-04-16T01:56:26.642Z,97175.34
2023-04-16T01:58:54.945Z,97178.63
2023-04-16T02:01:24.337Z,97179.03
2023-04-16T02:03:53.151Z,97177.81
2023-04-16T02:06:21.601Z,97173.53
2023-04-16T02:08:51.321Z,97180.19
2023-04-16T02:11:19.513Z,97181.09
2023-04-16T02:13:47.800Z,97182.56
2023-04-16T02:16:18.584Z,97176.25
2023-04-16T02:18:51.807Z,97184.59
2023-04-16T02:21:22.791Z,97191.41
2023-04-16T02:23:53.339Z,97183.88
2023-04-16T02:26:29.269Z,97197.00
2023-04-16T02:29:01.564Z,97193.63
2023-04-16T02:31:37.509Z,97190.59
2023-04-16T02:34:07.026Z,97189.53
2023-04-16T02:36:35.783Z,97191.00
2023-04-16T02:39:06.483Z,97195.00
2023-04-16T02:41:34.958Z,97193.19
2023-04-16T02:44:03.975Z,97192.03
2023-04-16T02:46:32.233Z,97194.09
2023-04-16T02:49:00.726Z,97191.94
2023-04-16T02:51:29.229Z,97195.44
2023-04-16T02:53:57.470Z,97191.97
2023-04-16T02:56:27.110Z,97192.88
2023-04-16T02:58:55.574Z,97191.28
2023-04-16T03:01:23.989Z,97194.66
2023-04-16T03:03:52.422Z,97197.00
2023-04-16T03:06:20.795Z,97190.34
2023-04-16T03:08:48.971Z,97193.25
2023-04-16T03:11:17.707Z,97197.38
2023-04-16T03:13:47.334Z,97195.00
2023-04-16T03:16:16.658Z,97207.31
2023-04-16T03:18:45.451Z,97206.34
2023-04-16T03:21:13.711Z,97206.63
2023-04-16T03:23:42.002Z,97198.53
2023-04-16T03:26:10.165Z,97211.28
2023-04-16T03:28:38.408Z,97209.63
2023-04-16T03:31:08.090Z,97207.06
2023-04-16T03:33:38.520Z,97208.22
2023-04-16T03:36:07.293Z,97219.91
2023-04-16T03:38:35.788Z,97210.53
2023-04-16T03:41:04.088Z,97220.16
2023-04-16T03:43:34.716Z,97221.66
2023-04-16T03:46:03.006Z,97223.66
2023-04-16T03:48:33.084Z,97221.91
2023-04-16T03:51:01.644Z,97227.31
2023-04-16T03:53:30.381Z,97227.34
2023-04-16T03:55:58.746Z,97229.75
2023-04-16T03:58:27.120Z,97233.22
2023-04-16T04:00:56.094Z,97237.94
2023-04-16T04:03:26.338Z,97229.16
2023-04-16T04:05:57.874Z,97241.78
2023-04-16T04:08:29.974Z,97243.16
2023-04-16T04:10:58.221Z,97240.94
2023-04-16T04:13:26.976Z,97242.53
2023-04-16T04:15:55.692Z,97245.91
2023-04-16T04:18:24.968Z,97250.91
2023-04-16T04:20:53.492Z,97251.66
2023-04-16T04:23:26.915Z,97243.44
2023-04-16T04:25:55.304Z,97254.38
2023-04-16T04:28:23.973Z,97250.78
2023-04-16T04:30:52.230Z,97256.22
2023-04-16T04:33:20.903Z,97253.66
2023-04-16T04:35:49.567Z,97262.75
2023-04-16T04:38:19.983Z,97266.06
2023-04-16T04:40:50.581Z,97269.59
2023-04-16T04:43:20.355Z,97273.19
2023-04-16T04:45:49.617Z,97276.03
2023-04-16T04:48:18.882Z,97273.91
2023-04-16T04:50:48.189Z,97278.22
2023-04-16T04:53:16.514Z,97283.25
2023-04-16T04:55:44.775Z,97280.81
2023-04-16T04:58:14.454Z,97288.66
2023-04-16T05:00:44.352Z,97288.50
2023-04-16T05:03:13.454Z,97298.88
2023-04-16T05:05:42.194Z,97300.78
2023-04-16T05:08:10.603Z,97302.75
2023-04-16T05:10:38.821Z,97297.66
2023-04-16T05:13:07.091Z,97308.69
2023-04-16T05:15:36.940Z,97306.97
2023-04-16T05:18:05.195Z,97312.09
2023-04-16T05:20:33.623Z,97308.94
2023-04-16T05:23:02.188Z,97314.25
2023-04-16T05:25:30.683Z,97315.91
2023-04-16T05:27:58.878Z,97319.47
2023-04-16T05:30:27.865Z,97315.25
2023-04-16T05:32:57.530Z,97323.19
2023-04-16T05:35:26.801Z,97322.13
2023-04-16T05:37:56.486Z,97322.81
2023-04-16T05:40:24.683Z,97318.25
2023-04-16T05:42:52.991Z,97324.09
2023-04-16T05:45:21.335Z,97329.16
2023-04-16T05:47:49.674Z,97331.56
2023-04-16T05:50:19.270Z,97335.66
2023-04-16T05:52:47.580Z,97333.06
2023-04-16T05:55:15.800Z,97336.34
2023-04-16T05:57:44.273Z,97334.91
2023-04-16T06:00:13.299Z,97339.56
2023-04-16T06:02:41.748Z,97334.41
2023-04-16T06:05:10.633Z,97339.81
2023-04-16T06:07:40.571Z,97341.81
2023-04-16T06:10:11.947Z,97333.94
2023-04-16T06:12:40.514Z,97337.94
2023-04-16T06:15:10.109Z,97336.06
2023-04-16T06:17:39.807Z,97330.66
2023-04-16T06:20:09.375Z,97333.31
2023-04-16T06:22:37.723Z,97335.75
2023-04-16T06:25:10.116Z,97334.09
2023-04-16T06:27:38.550Z,97340.44
2023-04-16T06:30:09.069Z,97342.44
2023-04-16T06:32:37.490Z,97334.41
2023-04-16T06:35:06.429Z,97333.44
2023-04-16T06:37:34.696Z,97333.72
2023-04-16T06:40:03.031Z,97334.88
2023-04-16T06:42:33.865Z,97334.03
2023-04-16T06:45:02.146Z,97332.31
2023-04-16T06:47:30.853Z,97334.72
2023-04-16T06:50:00.663Z,97327.50
2023-04-16T06:52:28.914Z,97333.22
2023-04-16T06:54:57.892Z,97340.13
2023-04-16T06:57:26.311Z,97337.38
2023-04-16T06:59:56.027Z,97340.00
2023-04-16T07:02:26.129Z,97346.28
2023-04-16T07:04:54.475Z,97337.19
2023-04-16T07:07:24.912Z,97342.91
2023-04-16T07:09:53.317Z,97341.88
2023-04-16T07:12:24.154Z,97337.84
2023-04-16T07:14:52.566Z,97347.50
2023-04-16T07:17:23.212Z,97349.34
2023-04-16T07:19:52.308Z,97348.66
2023-04-16T07:22:21.579Z,97346.16
2023-04-16T07:24:50.218Z,97352.19
2023-04-16T07:27:19.152Z,97355.66
2023-04-16T07:29:51.049Z,97354.94
2023-04-16T07:32:19.612Z,97358.41
2023-04-16T07:34:52.212Z,97359.31
2023-04-16T07:37:21.364Z,97356.75
2023-04-16T07:39:50.315Z,97361.88
2023-04-16T07:42:20.099Z,97355.84
2023-04-16T07:44:53.255Z,97352.38
2023-04-16T07:47:23.678Z,97360.13
2023-04-16T07:49:53.883Z,97352.38
2023-04-16T07:52:22.240Z,97359.19
2023-04-16T07:54:51.839Z,97357.47
2023-04-16T07:57:21.318Z,97359.25
2023-04-16T07:59:49.552Z,97362.63
2023-04-16T08:02:18.057Z,97365.19
2023-04-16T08:04:47.235Z,97368.38
2023-04-16T08:07:17.228Z,97371.97
2023-04-16T08:09:50.019Z,97371.13
2023-04-16T08:12:18.576Z,97379.81
2023-04-16T08:14:48.086Z,97366.88
2023-04-16T08:17:17.222Z,97375.41
2023-04-16T08:19:46.415Z,97372.63
2023-04-16T08:22:17.392Z,97374.34
2023-04-16T08:24:45.616Z,97369.91
2023-04-16T08:27:19.710Z,97368.25
2023-04-16T08:29:48.837Z,97375.06
2023-04-16T08:32:17.137Z,97367.78
2023-04-16T08:34:45.626Z,97367.94
2023-04-16T08:37:13.943Z,97370.31
2023-04-16T08:39:43.812Z,97368.53
2023-04-16T08:42:15.851Z,97373.44
2023-04-16T08:44:48.885Z,97368.75
2023-04-16T08:47:17.811Z,97370.00
2023-04-16T08:49:47.032Z,97365.88
2023-04-16T08:52:18.028Z,97376.28
2023-04-16T08:54:56.550Z,97384.09
2023-04-16T08:57:25.720Z,97388.97
2023-04-16T08:59:56.009Z,97398.47
2023-04-16T09:02:24.629Z,97387.06
2023-04-16T09:04:54.538Z,97388.00
2023-04-16T09:07:23.347Z,97383.50
2023-04-16T09:09:53.646Z,97389.13
2023-04-16T09:12:24.732Z,97390.16
2023-04-16T09:14:53.495Z,97391.19
2023-04-16T09:17:22.069Z,97389.16
2023-04-16T09:19:50.568Z,97387.03
2023-04-16T09:22:19.820Z,97390.47
2023-04-16T09:24:49.288Z,97389.22
2023-04-16T09:27:19.096Z,97384.97
2023-04-16T09:29:47.747Z,97386.97
2023-04-16T09:32:18.522Z,97389.56
2023-04-16T09:34:57.385Z,97388.81
2023-04-16T09:37:26.181Z,97386.19
2023-04-16T09:39:56.871Z,97390.84
2023-04-16T09:42:28.504Z,97390.31
2023-04-16T09:45:00.028Z,97386.88
2023-04-16T09:47:41.298Z,97391.63
2023-04-16T09:50:12.974Z,97382.03
2023-04-16T09:52:41.700Z,97382.75
2023-04-16T09:55:09.969Z,97384.94
2023-04-16T09:57:40.309Z,97382.50
2023-04-16T10:00:10.698Z,97386.78
2023-04-16T10:02:42.716Z,97380.78
2023-04-16T10:05:11.541Z,97388.25
2023-04-16T10:07:39.894Z,97381.88
2023-04-16T10:10:09.621Z,97377.72
2023-04-16T10:12:38.041Z,97364.53
2023-04-16T10:15:09.464Z,97371.78
2023-04-16T10:17:38.358Z,97364.94
2023-04-16T10:20:10.912Z,97373.94
2023-04-16T10:22:51.366Z,97363.47
2023-04-16T10:25:20.237Z,97363.56
2023-04-16T10:27:49.998Z,97358.16
2023-04-16T10:30:21.831Z,97352.25
2023-04-16T10:32:50.612Z,97346.09
2023-04-16T10:35:22.141Z,97351.50
2023-04-16T10:37:51.616Z,97345.00
2023-04-16T10:40:24.624Z,97351.81
2023-04-16T10:42:57.502Z,97358.97
2023-04-16T10:45:34.030Z,97361.03
2023-04-16T10:48:06.220Z,97359.84
2023-04-16T10:50:38.089Z,97364.16
2023-04-16T10:53:19.516Z,97355.28
2023-04-16T10:56:13.167Z,97350.34
2023-04-16T10:58:41.443Z,97356.13
2023-04-16T11:01:14.996Z,97362.31
2023-04-16T11:03:44.935Z,97350.97
2023-04-16T11:06:17.233Z,97346.63
2023-04-16T11:09:01.223Z,97356.03
2023-04-16T11:11:38.684Z,97353.78
2023-04-16T11:14:08.379Z,97349.91
2023-04-16T11:16:41.950Z,97344.50
2023-04-16T11:19:17.622Z,97347.19
2023-04-16T11:21:46.556Z,97346.69
2023-04-16T11:24:15.492Z,97346.56
2023-04-16T11:26:52.743Z,97338.38
2023-04-16T11:29:24.519Z,97330.50
2023-04-16T11:31:57.329Z,97327.91
2023-04-16T11:34:25.761Z,97327.03
2023-04-16T11:36:54.676Z,97328.31
2023-04-16T11:39:24.560Z,97335.41
2023-04-16T11:41:53.533Z,97322.06
2023-04-16T11:44:23.256Z,97332.28
2023-04-16T11:46:53.960Z,97325.47
2023-04-16T11:49:29.858Z,97314.81
2023-04-16T11:51:58.574Z,97314.59
2023-04-16T11:54:27.179Z,97318.72
2023-04-16T11:56:55.568Z,97319.66
2023-04-16T11:59:24.506Z,97329.59
2023-04-16T12:01:56.333Z,97321.59
2023-04-16T12:04:26.423Z,97333.63
2023-04-16T12:07:08.887Z,97339.91
2023-04-16T12:09:40.436Z,97335.44
2023-04-16T12:12:28.433Z,97331.25
2023-04-16T12:15:00.403Z,97330.47
2023-04-16T12:17:31.258Z,97332.38
2023-04-16T12:20:01.988Z,97331.53
2023-04-16T12:22:31.529Z,97331.25
2023-04-16T12:25:01.254Z,97328.31
2023-04-16T12:27:43.306Z,97327.63
2023-04-16T12:30:13.485Z,97328.41
2023-04-16T12:32:44.548Z,97326.16
2023-04-16T12:35:13.227Z,97317.66
2023-04-16T12:37:41.966Z,97314.97
2023-04-16T12:40:11.301Z,97321.44
2023-04-16T12:42:39.946Z,97324.03
2023-04-16T12:45:09.151Z,97306.63
2023-04-16T12:47:37.495Z,97315.88
2023-04-16T12:50:09.425Z,97315.38
2023-04-16T12:52:39.481Z,97307.44
2023-04-16T12:55:08.397Z,97298.63
2023-04-16T12:58:02.208Z,97306.72
2023-04-16T13:00:30.817Z,97301.84
2023-04-16T13:03:00.604Z,97305.66
2023-04-16T13:05:30.548Z,97306.63
2023-04-16T13:07:59.252Z,97311.72
2023-04-16T13:10:28.310Z,97317.50
2023-04-16T13:12:57.102Z,97318.44
2023-04-16T13:15:25.507Z,97315.22
2023-04-16T13:17:55.596Z,97313.59
2023-04-16T13:20:24.636Z,97320.00
2023-04-16T13:22:57.061Z,97314.47
2023-04-16T13:25:31.365Z,97313.88
2023-04-16T13:28:02.379Z,97317.75
2023-04-16T13:30:33.440Z,97318.75
2023-04-16T13:33:02.053Z,97314.34
2023-04-16T13:35:31.137Z,97323.56
2023-04-16T13:38:02.647Z,97322.94
2023-04-16T13:40:31.779Z,97326.81
2023-04-16T13:43:01.365Z,97320.75
2023-04-16T13:45:30.126Z,97329.38
2023-04-16T13:47:59.828Z,97326.16
2023-04-16T13:50:29.565Z,97324.31
2023-04-16T13:53:00.911Z,97328.53
2023-04-16T13:55:29.826Z,97326.63
2023-04-16T13:57:58.759Z,97328.69
2023-04-16T14:00:28.543Z,97329.53
2023-04-16T14:02:57.192Z,97330.13
2023-04-16T14:05:27.214Z,97341.22
2023-04-16T14:07:56.139Z,97337.72
2023-04-16T14:10:26.189Z,97338.50
2023-04-16T14:12:56.066Z,97329.75
2023-04-16T14:15:27.178Z,97334.19
2023-04-16T14:17:55.518Z,97333.06
2023-04-16T14:20:23.967Z,97325.34
2023-04-16T14:22:52.698Z,97336.75
2023-04-16T14:25:21.035Z,97326.84
2023-04-16T14:27:51.384Z,97325.31
2023-04-16T14:30:19.751Z,97333.06
2023-04-16T14:32:58.521Z,97324.41
2023-04-16T14:35:27.096Z,97325.28
2023-04-16T14:37:55.562Z,97332.84
2023-04-16T14:40:23.799Z,97330.63
2023-04-16T14:42:53.442Z,97331.66
2023-04-16T14:45:21.991Z,97330.97
2023-04-16T14:47:51.867Z,97323.91
2023-04-16T14:50:20.798Z,97334.38
2023-04-16T14:52:49.177Z,97324.31
2023-04-16T14:55:17.929Z,97336.19
2023-04-16T14:57:46.420Z,97335.09
2023-04-16T15:00:18.879Z,97337.34
2023-04-16T15:02:49.017Z,97336.56
2023-04-16T15:05:31.197Z,97344.28
2023-04-16T15:08:00.721Z,97349.44
2023-04-16T15:10:29.627Z,97356.56
2023-04-16T15:13:09.742Z,97358.34
2023-04-16T15:15:39.930Z,97355.16
2023-04-16T15:18:10.103Z,97356.56
2023-04-16T15:20:38.866Z,97360.31
2023-04-16T15:23:07.150Z,97363.34
2023-04-16T15:25:35.857Z,97360.69
2023-04-16T15:28:06.620Z,97366.97
2023-04-16T15:30:36.760Z,97367.50
2023-04-16T15:33:07.475Z,97368.78
2023-04-16T15:35:38.981Z,97365.38
2023-04-16T15:38:08.227Z,97367.28
2023-04-16T15:40:37.928Z,97374.59
2023-04-16T15:43:07.777Z,97374.81
2023-04-16T15:45:36.756Z,97374.91
2023-04-16T15:48:08.163Z,97368.06
2023-04-16T15:50:39.471Z,97378.91
2023-04-16T15:53:09.530Z,97377.25
2023-04-16T15:55:39.563Z,97378.25
2023-04-16T15:58:10.304Z,97380.50
2023-04-16T16:00:39.024Z,97388.09
2023-04-16T16:03:10.084Z,97386.56
2023-04-16T16:05:41.163Z,97396.75
2023-04-16T16:08:10.804Z,97393.22
2023-04-16T16:10:41.032Z,97395.38
2023-04-16T16:13:15.342Z,97397.91
2023-04-16T16:15:45.983Z,97398.97
2023-04-16T16:18:17.120Z,97401.31
2023-04-16T16:20:47.100Z,97401.81
2023-04-16T16:23:16.097Z,97410.56
2023-04-16T16:25:47.987Z,97410.44
2023-04-16T16:28:16.986Z,97408.69
2023-04-16T16:30:47.448Z,97415.75
2023-04-16T16:33:17.955Z,97418.44
2023-04-16T16:35:48.019Z,97415.84
2023-04-16T16:38:16.950Z,97424.34
2023-04-16T16:40:46.872Z,97426.13
2023-04-16T16:43:17.046Z,97424.47
2023-04-16T16:45:47.882Z,97423.53
2023-04-16T16:48:19.738Z,97427.06
2023-04-16T16:50:49.259Z,97422.06
2023-04-16T16:53:18.040Z,97414.44
2023-04-16T16:55:47.840Z,97424.28
2023-04-16T16:58:17.348Z,97423.09
2023-04-16T17:00:46.870Z,97428.19
2023-04-16T17:03:16.069Z,97425.66
2023-04-16T17:05:46.751Z,97428.97
2023-04-16T17:08:15.876Z,97430.00
2023-04-16T17:10:45.052Z,97431.00
2023-04-16T17:13:17.210Z,97435.25
2023-04-16T17:15:47.668Z,97426.78
2023-04-16T17:18:18.052Z,97435.34
2023-04-16T17:20:49.163Z,97437.03
2023-04-16T17:23:18.308Z,97449.06
2023-04-16T17:25:47.768Z,97444.25
2023-04-16T17:28:17.630Z,97438.25
2023-04-16T17:30:50.457Z,97446.06
2023-04-16T17:33:20.096Z,97434.78
2023-04-16T17:35:50.646Z,97441.66
2023-04-16T17:38:21.193Z,97451.69
2023-04-16T17:40:50.841Z,97442.63
2023-04-16T17:43:20.174Z,97445.38
2023-04-16T17:45:48.999Z,97452.25
2023-04-16T17:48:19.258Z,97464.41
2023-04-16T17:50:52.542Z,97458.47
2023-04-16T17:53:22.460Z,97462.91
2023-04-16T17:55:56.754Z,97466.38
2023-04-16T17:58:27.523Z,97475.38
2023-04-16T18:00:59.109Z,97474.19
2023-04-16T18:03:31.244Z,97475.97
2023-04-16T18:06:01.924Z,97471.69
2023-04-16T18:08:36.860Z,97477.72
2023-04-16T18:11:09.726Z,97481.06
2023-04-16T18:13:47.043Z,97481.91
2023-04-16T18:16:16.794Z,97490.53
2023-04-16T18:18:48.770Z,97488.00
2023-04-16T18:21:19.430Z,97488.91
2023-04-16T18:23:48.181Z,97498.38
2023-04-16T18:26:20.484Z,97496.69
2023-04-16T18:28:55.896Z,97491.53
2023-04-16T18:31:25.870Z,97489.84
2023-04-16T18:33:57.994Z,97491.56
2023-04-16T18:36:29.494Z,97499.31
2023-04-16T18:39:01.515Z,97507.97
2023-04-16T18:41:33.032Z,97505.38
2023-04-16T18:44:02.660Z,97510.59
2023-04-16T18:46:34.522Z,97508.00
2023-04-16T18:49:03.889Z,97508.84
2023-04-16T18:51:36.114Z,97508.78
2023-04-16T18:54:05.288Z,97506.19
2023-04-16T18:56:38.528Z,97514.84
2023-04-16T18:59:11.313Z,97519.16
2023-04-16T19:01:44.246Z,97515.69
2023-04-16T19:04:14.069Z,97515.66
2023-04-16T19:06:45.917Z,97517.41
2023-04-16T19:09:20.220Z,97512.25
2023-04-16T19:11:50.731Z,97511.34
2023-04-16T19:14:23.431Z,97512.19
2023-04-16T19:16:54.950Z,97512.28
2023-04-16T19:19:24.647Z,97507.94
2023-04-16T19:21:57.524Z,97512.28
2023-04-16T19:24:27.068Z,97510.56
2023-04-16T19:26:59.626Z,97512.28
2023-04-16T19:29:29.470Z,97512.25
2023-04-16T19:32:00.069Z,97508.84
2023-04-16T19:34:29.784Z,97512.22
2023-04-16T19:37:00.207Z,97514.00
2023-04-16T19:39:30.007Z,97506.31
2023-04-16T19:41:58.886Z,97511.44
2023-04-16T19:44:29.190Z,97512.31
2023-04-16T19:46:59.307Z,97509.75
2023-04-16T19:49:34.597Z,97508.03
2023-04-16T19:52:08.024Z,97509.78
2023-04-16T19:54:39.274Z,97509.78
2023-04-16T19:57:09.356Z,97509.78
2023-04-16T19:59:38.804Z,97517.53
2023-04-16T20:02:10.362Z,97514.13
2023-04-16T20:04:39.942Z,97504.66
2023-04-16T20:07:10.917Z,97514.06
2023-04-16T20:09:39.993Z,97511.50
2023-04-16T20:12:11.898Z,97514.13
2023-04-16T20:14:42.248Z,97514.94
2023-04-16T20:17:12.274Z,97514.09
2023-04-16T20:19:47.544Z,97511.50
2023-04-16T20:22:18.853Z,97507.22
2023-04-16T20:24:48.619Z,97504.63
2023-04-16T20:27:19.650Z,97507.13
2023-04-16T20:29:49.354Z,97506.31
2023-04-16T20:32:19.748Z,97489.94
2023-04-16T20:34:49.310Z,97492.47
2023-04-16T20:37:20.985Z,97485.63
2023-04-16T20:39:50.569Z,97496.91
2023-04-16T20:42:22.223Z,97489.97
2023-04-16T20:44:56.405Z,97490.78
2023-04-16T20:47:25.327Z,97488.22
2023-04-16T20:49:55.862Z,97483.09
2023-04-16T20:52:26.205Z,97482.25
2023-04-16T20:54:54.593Z,97477.94
2023-04-16T20:57:23.037Z,97471.81
2023-04-16T20:59:51.566Z,97475.34
2023-04-16T21:02:20.277Z,97477.09
2023-04-16T21:04:49.236Z,97481.38
2023-04-16T21:07:18.044Z,97472.75
2023-04-16T21:09:47.798Z,97481.41
2023-04-16T21:12:16.850Z,97483.94
2023-04-16T21:14:45.215Z,97480.56
2023-04-16T21:17:13.551Z,97479.69
2023-04-16T21:19:41.845Z,97483.97
2023-04-16T21:22:10.244Z,97483.13
2023-04-16T21:24:39.004Z,97481.41
2023-04-16T21:27:09.063Z,97480.53
2023-04-16T21:29:37.388Z,97481.34
2023-04-16T21:32:06.840Z,97478.81
2023-04-16T21:34:35.169Z,97477.09
2023-04-16T21:37:04.521Z,97476.22
2023-04-16T21:39:32.946Z,97481.38
2023-04-16T21:42:01.893Z,97479.66
2023-04-16T21:44:31.667Z,97481.38
2023-04-16T21:46:59.974Z,97483.13
2023-04-16T21:49:28.667Z,97481.41
2023-04-16T21:51:59.281Z,97483.09
2023-04-16T21:54:29.498Z,97483.97
2023-04-16T21:57:07.633Z,97482.25
2023-04-16T21:59:39.415Z,97483.09
2023-04-16T22:02:08.030Z,97476.19
2023-04-16T22:04:39.054Z,97474.50
2023-04-16T22:07:08.999Z,97473.59
2023-04-16T22:09:37.386Z,97473.63
2023-04-16T22:12:10.248Z,97471.91
2023-04-16T22:14:44.253Z,97474.50
2023-04-16T22:17:18.329Z,97466.75
2023-04-16T22:19:46.624Z,97471.00
2023-04-16T22:22:15.209Z,97472.72
2023-04-16T22:24:44.777Z,97475.34
2023-04-16T22:27:13.089Z,97480.50
2023-04-16T22:29:42.703Z,97474.47
2023-04-16T22:32:11.061Z,97474.50
2023-04-16T22:34:39.434Z,97474.53
2023-04-16T22:37:08.295Z,97476.22
2023-04-16T22:39:36.496Z,97467.63
2023-04-16T22:42:07.469Z,97471.06
2023-04-16T22:44:36.013Z,97471.88
2023-04-16T22:47:05.800Z,97471.06
2023-04-16T22:49:34.159Z,97464.19
2023-04-16T22:52:05.136Z,97466.78
2023-04-16T22:54:34.505Z,97465.91
2023-04-16T22:57:02.822Z,97469.34
2023-04-16T22:59:31.302Z,97471.09
2023-04-16T23:01:59.714Z,97469.38
2023-04-16T23:04:33.040Z,97465.94
2023-04-16T23:07:01.574Z,97465.06
2023-04-16T23:09:29.880Z,97463.34
2023-04-16T23:11:58.232Z,97465.06
2023-04-16T23:14:26.819Z,97460.75
2023-04-16T23:16:55.231Z,97452.97
2023-04-16T23:19:23.602Z,97457.31
2023-04-16T23:21:53.279Z,97454.72
2023-04-16T23:24:21.812Z,97443.53
2023-04-16T23:26:50.344Z,97453.84
2023-04-16T23:29:18.633Z,97442.66
2023-04-16T23:31:47.795Z,97447.00
2023-04-16T23:34:16.548Z,97444.38
2023-04-16T23:36:44.812Z,97442.66
2023-04-16T23:39:14.682Z,97436.59
2023-04-16T23:41:42.992Z,97437.50
2023-04-16T23:44:11.316Z,97434.06
2023-04-16T23:46:41.025Z,97432.34
2023-04-16T23:49:09.765Z,97422.00
2023-04-16T23:51:38.383Z,97423.66
2023-04-16T23:54:07.030Z,97422.78
2023-04-16T23:56:36.677Z,97412.44
2023-04-16T23:59:05.103Z,97415.84
